sensor_id;sensor_type;location;lat;lon;timestamp;temperature;humidity
42755;DHT22;28407;51.830;5.684;2024-03-06T00:01:52;8.50;82.60
42755;DHT22;28407;51.830;5.684;2024-03-06T00:03:53;8.40;82.50
42755;DHT22;28407;51.830;5.684;2024-03-06T00:05:54;8.40;82.50
42755;DHT22;28407;51.830;5.684;2024-03-06T00:07:54;8.40;82.50
42755;DHT22;28407;51.830;5.684;2024-03-06T00:09:55;8.40;82.50
42755;DHT22;28407;51.830;5.684;2024-03-06T00:11:59;8.40;82.50
42755;DHT22;28407;51.830;5.684;2024-03-06T00:14:00;8.40;82.50
42755;DHT22;28407;51.830;5.684;2024-03-06T00:16:01;8.40;82.50
42755;DHT22;28407;51.830;5.684;2024-03-06T00:18:02;8.40;82.60
42755;DHT22;28407;51.830;5.684;2024-03-06T00:20:06;8.30;82.50
42755;DHT22;28407;51.830;5.684;2024-03-06T00:22:07;8.30;82.50
42755;DHT22;28407;51.830;5.684;2024-03-06T00:24:08;8.30;82.50
42755;DHT22;28407;51.830;5.684;2024-03-06T00:26:09;8.30;82.50
42755;DHT22;28407;51.830;5.684;2024-03-06T00:28:10;8.30;82.50
42755;DHT22;28407;51.830;5.684;2024-03-06T00:30:11;8.30;82.50
42755;DHT22;28407;51.830;5.684;2024-03-06T00:32:15;8.20;82.40
42755;DHT22;28407;51.830;5.684;2024-03-06T00:34:16;8.20;82.50
42755;DHT22;28407;51.830;5.684;2024-03-06T00:36:17;8.20;82.50
42755;DHT22;28407;51.830;5.684;2024-03-06T00:38:17;8.20;82.50
42755;DHT22;28407;51.830;5.684;2024-03-06T00:40:18;8.20;82.50
42755;DHT22;28407;51.830;5.684;2024-03-06T00:42:19;8.10;82.40
42755;DHT22;28407;51.830;5.684;2024-03-06T00:44:19;8.10;82.40
42755;DHT22;28407;51.830;5.684;2024-03-06T00:46:20;8.10;82.40
42755;DHT22;28407;51.830;5.684;2024-03-06T00:48:21;8.10;82.50
42755;DHT22;28407;51.830;5.684;2024-03-06T00:50:22;8.10;82.50
42755;DHT22;28407;51.830;5.684;2024-03-06T00:52:22;8.00;82.50
42755;DHT22;28407;51.830;5.684;2024-03-06T00:54:23;8.00;82.40
42755;DHT22;28407;51.830;5.684;2024-03-06T00:56:27;8.00;82.40
42755;DHT22;28407;51.830;5.684;2024-03-06T00:58:28;8.00;82.40
42755;DHT22;28407;51.830;5.684;2024-03-06T01:00:29;8.00;82.40
42755;DHT22;28407;51.830;5.684;2024-03-06T01:02:33;8.00;82.40
42755;DHT22;28407;51.830;5.684;2024-03-06T01:04:34;7.90;82.40
42755;DHT22;28407;51.830;5.684;2024-03-06T01:06:34;7.90;82.40
42755;DHT22;28407;51.830;5.684;2024-03-06T01:08:35;7.90;82.40
42755;DHT22;28407;51.830;5.684;2024-03-06T01:10:36;7.90;82.40
42755;DHT22;28407;51.830;5.684;2024-03-06T01:12:37;7.90;82.40
42755;DHT22;28407;51.830;5.684;2024-03-06T01:14:40;7.90;82.40
42755;DHT22;28407;51.830;5.684;2024-03-06T01:16:41;7.90;82.40
42755;DHT22;28407;51.830;5.684;2024-03-06T01:18:41;7.90;82.40
42755;DHT22;28407;51.830;5.684;2024-03-06T01:20:42;7.80;82.30
42755;DHT22;28407;51.830;5.684;2024-03-06T01:22:43;7.80;82.30
42755;DHT22;28407;51.830;5.684;2024-03-06T01:24:44;7.80;82.30
42755;DHT22;28407;51.830;5.684;2024-03-06T01:26:45;7.80;82.40
42755;DHT22;28407;51.830;5.684;2024-03-06T01:28:45;7.80;82.30
42755;DHT22;28407;51.830;5.684;2024-03-06T01:30:47;7.70;82.30
42755;DHT22;28407;51.830;5.684;2024-03-06T01:32:47;7.70;82.30
42755;DHT22;28407;51.830;5.684;2024-03-06T01:34:48;7.70;82.30
42755;DHT22;28407;51.830;5.684;2024-03-06T01:36:49;7.70;82.30
42755;DHT22;28407;51.830;5.684;2024-03-06T01:38:50;7.70;82.30
42755;DHT22;28407;51.830;5.684;2024-03-06T01:40:50;7.70;82.30
42755;DHT22;28407;51.830;5.684;2024-03-06T01:42:51;7.70;82.20
42755;DHT22;28407;51.830;5.684;2024-03-06T01:44:52;7.60;82.20
42755;DHT22;28407;51.830;5.684;2024-03-06T01:46:53;7.60;82.20
42755;DHT22;28407;51.830;5.684;2024-03-06T01:48:55;7.60;82.20
42755;DHT22;28407;51.830;5.684;2024-03-06T01:50:57;7.60;82.20
42755;DHT22;28407;51.830;5.684;2024-03-06T01:53:00;7.60;82.20
42755;DHT22;28407;51.830;5.684;2024-03-06T01:55:03;7.60;82.20
42755;DHT22;28407;51.830;5.684;2024-03-06T01:57:06;7.60;82.20
42755;DHT22;28407;51.830;5.684;2024-03-06T01:59:08;7.50;82.10
42755;DHT22;28407;51.830;5.684;2024-03-06T02:01:09;7.50;82.10
42755;DHT22;28407;51.830;5.684;2024-03-06T02:03:11;7.50;82.20
42755;DHT22;28407;51.830;5.684;2024-03-06T02:05:12;7.50;82.10
42755;DHT22;28407;51.830;5.684;2024-03-06T02:07:14;7.50;82.10
42755;DHT22;28407;51.830;5.684;2024-03-06T02:09:16;7.40;82.00
42755;DHT22;28407;51.830;5.684;2024-03-06T02:11:17;7.40;82.00
42755;DHT22;28407;51.830;5.684;2024-03-06T02:13:18;7.40;82.10
42755;DHT22;28407;51.830;5.684;2024-03-06T02:15:19;7.30;82.00
42755;DHT22;28407;51.830;5.684;2024-03-06T02:17:20;7.30;82.00
42755;DHT22;28407;51.830;5.684;2024-03-06T02:19:22;7.30;82.10
42755;DHT22;28407;51.830;5.684;2024-03-06T02:21:24;7.30;82.00
42755;DHT22;28407;51.830;5.684;2024-03-06T02:23:25;7.30;82.00
42755;DHT22;28407;51.830;5.684;2024-03-06T02:25:25;7.30;82.00
42755;DHT22;28407;51.830;5.684;2024-03-06T02:27:26;7.20;81.90
42755;DHT22;28407;51.830;5.684;2024-03-06T02:29:27;7.20;82.00
42755;DHT22;28407;51.830;5.684;2024-03-06T02:31:28;7.20;82.00
42755;DHT22;28407;51.830;5.684;2024-03-06T02:33:28;7.20;81.90
42755;DHT22;28407;51.830;5.684;2024-03-06T02:35:30;7.20;81.90
42755;DHT22;28407;51.830;5.684;2024-03-06T02:37:31;7.20;81.90
42755;DHT22;28407;51.830;5.684;2024-03-06T02:39:34;7.20;81.90
42755;DHT22;28407;51.830;5.684;2024-03-06T02:41:37;7.20;81.90
42755;DHT22;28407;51.830;5.684;2024-03-06T02:43:38;7.20;81.90
42755;DHT22;28407;51.830;5.684;2024-03-06T02:45:39;7.20;81.90
42755;DHT22;28407;51.830;5.684;2024-03-06T02:47:40;7.20;81.90
42755;DHT22;28407;51.830;5.684;2024-03-06T02:49:41;7.20;81.90
42755;DHT22;28407;51.830;5.684;2024-03-06T02:51:42;7.20;81.90
42755;DHT22;28407;51.830;5.684;2024-03-06T02:53:43;7.20;81.90
42755;DHT22;28407;51.830;5.684;2024-03-06T02:55:44;7.20;81.90
42755;DHT22;28407;51.830;5.684;2024-03-06T02:57:45;7.20;81.80
42755;DHT22;28407;51.830;5.684;2024-03-06T02:59:46;7.20;81.80
42755;DHT22;28407;51.830;5.684;2024-03-06T03:01:46;7.20;81.80
42755;DHT22;28407;51.830;5.684;2024-03-06T03:03:47;7.10;81.70
42755;DHT22;28407;51.830;5.684;2024-03-06T03:05:49;7.10;81.70
42755;DHT22;28407;51.830;5.684;2024-03-06T03:07:51;7.10;81.70
42755;DHT22;28407;51.830;5.684;2024-03-06T03:09:54;7.10;81.80
42755;DHT22;28407;51.830;5.684;2024-03-06T03:11:55;7.10;81.80
42755;DHT22;28407;51.830;5.684;2024-03-06T03:13:55;7.00;81.70
42755;DHT22;28407;51.830;5.684;2024-03-06T03:15:57;7.00;81.70
42755;DHT22;28407;51.830;5.684;2024-03-06T03:17:58;7.00;81.70
42755;DHT22;28407;51.830;5.684;2024-03-06T03:20:03;7.00;81.80
42755;DHT22;28407;51.830;5.684;2024-03-06T03:22:13;7.00;81.80
42755;DHT22;28407;51.830;5.684;2024-03-06T03:24:13;7.00;81.80
42755;DHT22;28407;51.830;5.684;2024-03-06T03:26:14;7.00;81.70
42755;DHT22;28407;51.830;5.684;2024-03-06T03:28:15;6.90;81.70
42755;DHT22;28407;51.830;5.684;2024-03-06T03:30:18;6.90;81.70
42755;DHT22;28407;51.830;5.684;2024-03-06T03:32:22;6.90;82.40
42755;DHT22;28407;51.830;5.684;2024-03-06T03:34:23;6.90;81.80
42755;DHT22;28407;51.830;5.684;2024-03-06T03:36:24;6.80;81.70
42755;DHT22;28407;51.830;5.684;2024-03-06T03:38:25;6.80;81.70
42755;DHT22;28407;51.830;5.684;2024-03-06T03:40:26;6.80;81.80
42755;DHT22;28407;51.830;5.684;2024-03-06T03:42:26;6.80;81.90
42755;DHT22;28407;51.830;5.684;2024-03-06T03:44:27;6.80;81.90
42755;DHT22;28407;51.830;5.684;2024-03-06T03:46:28;6.80;81.90
42755;DHT22;28407;51.830;5.684;2024-03-06T03:48:29;6.80;81.90
42755;DHT22;28407;51.830;5.684;2024-03-06T03:50:29;6.70;81.80
42755;DHT22;28407;51.830;5.684;2024-03-06T03:52:30;6.70;81.80
42755;DHT22;28407;51.830;5.684;2024-03-06T03:54:31;6.70;81.80
42755;DHT22;28407;51.830;5.684;2024-03-06T03:56:32;6.70;81.80
42755;DHT22;28407;51.830;5.684;2024-03-06T03:58:33;6.70;81.80
42755;DHT22;28407;51.830;5.684;2024-03-06T04:00:33;6.70;81.80
42755;DHT22;28407;51.830;5.684;2024-03-06T04:02:34;6.70;81.70
42755;DHT22;28407;51.830;5.684;2024-03-06T04:04:35;6.60;81.70
42755;DHT22;28407;51.830;5.684;2024-03-06T04:06:36;6.60;81.70
42755;DHT22;28407;51.830;5.684;2024-03-06T04:08:37;6.60;81.70
42755;DHT22;28407;51.830;5.684;2024-03-06T04:10:42;6.60;81.70
42755;DHT22;28407;51.830;5.684;2024-03-06T04:12:45;6.60;81.70
42755;DHT22;28407;51.830;5.684;2024-03-06T04:14:46;6.60;81.70
42755;DHT22;28407;51.830;5.684;2024-03-06T04:16:47;6.60;81.70
42755;DHT22;28407;51.830;5.684;2024-03-06T04:18:47;6.50;81.50
42755;DHT22;28407;51.830;5.684;2024-03-06T04:20:48;6.50;82.10
42755;DHT22;28407;51.830;5.684;2024-03-06T04:22:49;6.50;81.50
42755;DHT22;28407;51.830;5.684;2024-03-06T04:24:51;6.50;81.50
42755;DHT22;28407;51.830;5.684;2024-03-06T04:26:52;6.50;81.50
42755;DHT22;28407;51.830;5.684;2024-03-06T04:28:52;6.50;81.50
42755;DHT22;28407;51.830;5.684;2024-03-06T04:30:53;6.50;81.50
42755;DHT22;28407;51.830;5.684;2024-03-06T04:32:54;6.40;81.40
42755;DHT22;28407;51.830;5.684;2024-03-06T04:34:58;6.50;81.50
42755;DHT22;28407;51.830;5.684;2024-03-06T04:37:01;6.40;81.40
42755;DHT22;28407;51.830;5.684;2024-03-06T04:39:02;6.40;81.40
42755;DHT22;28407;51.830;5.684;2024-03-06T04:41:07;6.40;81.40
42755;DHT22;28407;51.830;5.684;2024-03-06T04:43:08;6.40;81.30
42755;DHT22;28407;51.830;5.684;2024-03-06T04:45:15;6.40;81.30
42755;DHT22;28407;51.830;5.684;2024-03-06T04:47:16;6.40;81.30
42755;DHT22;28407;51.830;5.684;2024-03-06T04:49:17;6.40;81.30
42755;DHT22;28407;51.830;5.684;2024-03-06T04:51:18;6.40;81.30
42755;DHT22;28407;51.830;5.684;2024-03-06T04:53:20;6.40;81.30
42755;DHT22;28407;51.830;5.684;2024-03-06T04:55:20;6.40;81.30
42755;DHT22;28407;51.830;5.684;2024-03-06T04:57:23;6.40;81.30
42755;DHT22;28407;51.830;5.684;2024-03-06T04:59:23;6.40;81.20
42755;DHT22;28407;51.830;5.684;2024-03-06T05:01:24;6.40;81.20
42755;DHT22;28407;51.830;5.684;2024-03-06T05:03:25;6.40;81.80
42755;DHT22;28407;51.830;5.684;2024-03-06T05:05:26;6.40;81.20
42755;DHT22;28407;51.830;5.684;2024-03-06T05:07:28;6.40;81.20
42755;DHT22;28407;51.830;5.684;2024-03-06T05:09:29;6.30;81.10
42755;DHT22;28407;51.830;5.684;2024-03-06T05:11:30;6.30;81.10
42755;DHT22;28407;51.830;5.684;2024-03-06T05:13:31;6.30;81.10
42755;DHT22;28407;51.830;5.684;2024-03-06T05:15:32;6.30;81.10
42755;DHT22;28407;51.830;5.684;2024-03-06T05:17:33;6.30;81.10
42755;DHT22;28407;51.830;5.684;2024-03-06T05:19:34;6.30;81.10
42755;DHT22;28407;51.830;5.684;2024-03-06T05:21:35;6.30;81.10
42755;DHT22;28407;51.830;5.684;2024-03-06T05:23:36;6.20;81.00
42755;DHT22;28407;51.830;5.684;2024-03-06T05:25:36;6.20;81.00
42755;DHT22;28407;51.830;5.684;2024-03-06T05:27:37;6.20;81.10
42755;DHT22;28407;51.830;5.684;2024-03-06T05:29:38;6.20;81.00
42755;DHT22;28407;51.830;5.684;2024-03-06T05:31:39;6.20;81.00
42755;DHT22;28407;51.830;5.684;2024-03-06T05:33:39;6.20;81.00
42755;DHT22;28407;51.830;5.684;2024-03-06T05:35:40;6.20;81.00
42755;DHT22;28407;51.830;5.684;2024-03-06T05:37:42;6.10;81.00
42755;DHT22;28407;51.830;5.684;2024-03-06T05:39:43;6.10;81.00
42755;DHT22;28407;51.830;5.684;2024-03-06T05:41:44;6.10;81.00
42755;DHT22;28407;51.830;5.684;2024-03-06T05:43:45;6.10;81.00
42755;DHT22;28407;51.830;5.684;2024-03-06T05:45:45;6.00;80.90
42755;DHT22;28407;51.830;5.684;2024-03-06T05:47:46;6.10;81.00
42755;DHT22;28407;51.830;5.684;2024-03-06T05:49:48;6.00;80.90
42755;DHT22;28407;51.830;5.684;2024-03-06T05:51:49;6.00;80.90
42755;DHT22;28407;51.830;5.684;2024-03-06T05:53:50;6.00;80.90
42755;DHT22;28407;51.830;5.684;2024-03-06T05:55:53;6.00;80.90
42755;DHT22;28407;51.830;5.684;2024-03-06T05:57:54;6.00;80.90
42755;DHT22;28407;51.830;5.684;2024-03-06T05:59:55;6.00;80.90
42755;DHT22;28407;51.830;5.684;2024-03-06T06:01:57;6.00;80.90
42755;DHT22;28407;51.830;5.684;2024-03-06T06:03:58;6.00;80.90
42755;DHT22;28407;51.830;5.684;2024-03-06T06:06:00;6.00;80.80
42755;DHT22;28407;51.830;5.684;2024-03-06T06:08:01;5.90;80.80
42755;DHT22;28407;51.830;5.684;2024-03-06T06:10:02;5.90;80.70
42755;DHT22;28407;51.830;5.684;2024-03-06T06:12:02;5.90;80.70
42755;DHT22;28407;51.830;5.684;2024-03-06T06:14:03;5.90;80.70
42755;DHT22;28407;51.830;5.684;2024-03-06T06:16:04;5.90;80.70
42755;DHT22;28407;51.830;5.684;2024-03-06T06:18:05;5.90;80.70
42755;DHT22;28407;51.830;5.684;2024-03-06T06:20:07;5.90;80.80
42755;DHT22;28407;51.830;5.684;2024-03-06T06:22:10;5.90;80.80
42755;DHT22;28407;51.830;5.684;2024-03-06T06:24:13;6.00;80.80
42755;DHT22;28407;51.830;5.684;2024-03-06T06:26:14;6.00;81.50
42755;DHT22;28407;51.830;5.684;2024-03-06T06:28:14;5.90;80.80
42755;DHT22;28407;51.830;5.684;2024-03-06T06:30:16;6.00;80.90
42755;DHT22;28407;51.830;5.684;2024-03-06T06:32:17;6.00;80.90
42755;DHT22;28407;51.830;5.684;2024-03-06T06:34:22;6.00;81.00
42755;DHT22;28407;51.830;5.684;2024-03-06T06:36:27;6.00;81.10
42755;DHT22;28407;51.830;5.684;2024-03-06T06:38:28;6.00;81.20
42755;DHT22;28407;51.830;5.684;2024-03-06T06:40:29;6.00;81.30
42755;DHT22;28407;51.830;5.684;2024-03-06T06:42:33;6.00;81.40
42755;DHT22;28407;51.830;5.684;2024-03-06T06:44:34;6.00;81.40
42755;DHT22;28407;51.830;5.684;2024-03-06T06:46:34;6.10;81.50
42755;DHT22;28407;51.830;5.684;2024-03-06T06:48:38;6.10;81.50
42755;DHT22;28407;51.830;5.684;2024-03-06T06:50:38;6.10;81.70
42755;DHT22;28407;51.830;5.684;2024-03-06T06:52:40;6.10;81.80
42755;DHT22;28407;51.830;5.684;2024-03-06T06:54:43;6.10;81.80
42755;DHT22;28407;51.830;5.684;2024-03-06T06:56:44;6.10;81.80
42755;DHT22;28407;51.830;5.684;2024-03-06T06:58:44;6.10;81.90
42755;DHT22;28407;51.830;5.684;2024-03-06T07:00:45;6.10;81.90
42755;DHT22;28407;51.830;5.684;2024-03-06T07:02:46;6.20;82.00
42755;DHT22;28407;51.830;5.684;2024-03-06T07:04:46;6.20;81.90
42755;DHT22;28407;51.830;5.684;2024-03-06T07:06:49;6.20;81.90
42755;DHT22;28407;51.830;5.684;2024-03-06T07:08:53;6.20;82.50
42755;DHT22;28407;51.830;5.684;2024-03-06T07:10:54;6.30;81.90
42755;DHT22;28407;51.830;5.684;2024-03-06T07:12:55;6.30;81.90
42755;DHT22;28407;51.830;5.684;2024-03-06T07:14:56;6.40;82.10
42755;DHT22;28407;51.830;5.684;2024-03-06T07:16:57;6.40;82.10
42755;DHT22;28407;51.830;5.684;2024-03-06T07:19:00;6.40;82.10
42755;DHT22;28407;51.830;5.684;2024-03-06T07:21:02;6.40;82.00
42755;DHT22;28407;51.830;5.684;2024-03-06T07:23:02;6.50;82.10
42755;DHT22;28407;51.830;5.684;2024-03-06T07:25:03;6.50;82.00
42755;DHT22;28407;51.830;5.684;2024-03-06T07:27:06;6.50;82.10
42755;DHT22;28407;51.830;5.684;2024-03-06T07:29:09;6.50;82.10
42755;DHT22;28407;51.830;5.684;2024-03-06T07:31:15;6.50;82.10
42755;DHT22;28407;51.830;5.684;2024-03-06T07:33:15;6.50;82.10
42755;DHT22;28407;51.830;5.684;2024-03-06T07:35:16;6.50;82.20
42755;DHT22;28407;51.830;5.684;2024-03-06T07:37:18;6.60;82.30
42755;DHT22;28407;51.830;5.684;2024-03-06T07:39:20;6.60;82.30
42755;DHT22;28407;51.830;5.684;2024-03-06T07:41:21;6.60;82.40
42755;DHT22;28407;51.830;5.684;2024-03-06T07:43:21;6.60;82.30
42755;DHT22;28407;51.830;5.684;2024-03-06T07:45:23;6.60;82.30
42755;DHT22;28407;51.830;5.684;2024-03-06T07:47:24;6.60;82.30
42755;DHT22;28407;51.830;5.684;2024-03-06T07:49:25;6.60;82.40
42755;DHT22;28407;51.830;5.684;2024-03-06T07:51:26;6.60;82.50
42755;DHT22;28407;51.830;5.684;2024-03-06T07:53:27;6.60;82.60
42755;DHT22;28407;51.830;5.684;2024-03-06T07:55:28;6.60;82.60
42755;DHT22;28407;51.830;5.684;2024-03-06T07:57:28;6.60;82.70
42755;DHT22;28407;51.830;5.684;2024-03-06T07:59:29;6.60;82.70
42755;DHT22;28407;51.830;5.684;2024-03-06T08:01:30;6.60;82.60
42755;DHT22;28407;51.830;5.684;2024-03-06T08:03:32;6.60;82.70
42755;DHT22;28407;51.830;5.684;2024-03-06T08:05:34;6.60;82.80
42755;DHT22;28407;51.830;5.684;2024-03-06T08:07:35;6.60;82.90
42755;DHT22;28407;51.830;5.684;2024-03-06T08:09:35;6.60;83.00
42755;DHT22;28407;51.830;5.684;2024-03-06T08:11:36;6.60;83.10
42755;DHT22;28407;51.830;5.684;2024-03-06T08:13:37;6.60;83.20
42755;DHT22;28407;51.830;5.684;2024-03-06T08:15:38;6.60;83.20
42755;DHT22;28407;51.830;5.684;2024-03-06T08:17:41;6.70;83.20
42755;DHT22;28407;51.830;5.684;2024-03-06T08:19:42;6.70;83.20
42755;DHT22;28407;51.830;5.684;2024-03-06T08:21:46;6.70;83.20
42755;DHT22;28407;51.830;5.684;2024-03-06T08:23:47;6.70;83.00
42755;DHT22;28407;51.830;5.684;2024-03-06T08:25:48;6.80;83.10
42755;DHT22;28407;51.830;5.684;2024-03-06T08:27:48;6.80;83.10
42755;DHT22;28407;51.830;5.684;2024-03-06T08:29:49;6.80;83.10
42755;DHT22;28407;51.830;5.684;2024-03-06T08:31:50;6.90;83.10
42755;DHT22;28407;51.830;5.684;2024-03-06T08:33:51;6.90;83.10
42755;DHT22;28407;51.830;5.684;2024-03-06T08:35:53;6.90;83.20
42755;DHT22;28407;51.830;5.684;2024-03-06T08:37:53;7.00;83.30
42755;DHT22;28407;51.830;5.684;2024-03-06T08:39:54;7.00;83.10
42755;DHT22;28407;51.830;5.684;2024-03-06T08:41:55;7.00;83.20
42755;DHT22;28407;51.830;5.684;2024-03-06T08:43:55;7.10;83.20
42755;DHT22;28407;51.830;5.684;2024-03-06T08:45:56;7.10;83.10
42755;DHT22;28407;51.830;5.684;2024-03-06T08:47:57;7.10;83.20
42755;DHT22;28407;51.830;5.684;2024-03-06T08:49:58;7.20;83.20
42755;DHT22;28407;51.830;5.684;2024-03-06T08:51:58;7.20;83.20
42755;DHT22;28407;51.830;5.684;2024-03-06T08:53:59;7.20;83.20
42755;DHT22;28407;51.830;5.684;2024-03-06T08:56:00;7.30;83.30
42755;DHT22;28407;51.830;5.684;2024-03-06T08:58:01;7.30;83.30
42755;DHT22;28407;51.830;5.684;2024-03-06T09:00:03;7.30;83.30
42755;DHT22;28407;51.830;5.684;2024-03-06T09:02:18;7.40;83.60
42755;DHT22;28407;51.830;5.684;2024-03-06T09:04:20;7.40;83.40
42755;DHT22;28407;51.830;5.684;2024-03-06T09:06:20;7.40;83.40
42755;DHT22;28407;51.830;5.684;2024-03-06T09:08:21;7.50;83.50
42755;DHT22;28407;51.830;5.684;2024-03-06T09:10:22;7.50;83.50
42755;DHT22;28407;51.830;5.684;2024-03-06T09:12:22;7.50;83.50
42755;DHT22;28407;51.830;5.684;2024-03-06T09:14:23;7.50;83.60
42755;DHT22;28407;51.830;5.684;2024-03-06T09:16:24;7.50;83.60
42755;DHT22;28407;51.830;5.684;2024-03-06T09:18:25;7.60;83.60
42755;DHT22;28407;51.830;5.684;2024-03-06T09:20:25;7.60;83.60
42755;DHT22;28407;51.830;5.684;2024-03-06T09:22:26;7.60;83.70
42755;DHT22;28407;51.830;5.684;2024-03-06T09:24:27;7.60;83.70
42755;DHT22;28407;51.830;5.684;2024-03-06T09:26:28;7.70;83.70
42755;DHT22;28407;51.830;5.684;2024-03-06T09:28:29;7.70;83.70
42755;DHT22;28407;51.830;5.684;2024-03-06T09:30:30;7.70;83.70
42755;DHT22;28407;51.830;5.684;2024-03-06T09:32:33;7.70;83.70
42755;DHT22;28407;51.830;5.684;2024-03-06T09:34:34;7.80;83.80
42755;DHT22;28407;51.830;5.684;2024-03-06T09:36:34;7.80;83.70
42755;DHT22;28407;51.830;5.684;2024-03-06T09:38:35;7.80;83.80
42755;DHT22;28407;51.830;5.684;2024-03-06T09:40:37;7.80;83.90
42755;DHT22;28407;51.830;5.684;2024-03-06T09:42:38;7.80;83.90
42755;DHT22;28407;51.830;5.684;2024-03-06T09:44:40;7.80;83.90
42755;DHT22;28407;51.830;5.684;2024-03-06T09:46:47;7.90;83.90
42755;DHT22;28407;51.830;5.684;2024-03-06T09:48:49;7.90;83.90
42755;DHT22;28407;51.830;5.684;2024-03-06T09:50:53;7.90;83.90
42755;DHT22;28407;51.830;5.684;2024-03-06T09:52:56;7.90;83.90
42755;DHT22;28407;51.830;5.684;2024-03-06T09:54:59;8.00;84.00
42755;DHT22;28407;51.830;5.684;2024-03-06T09:57:01;8.00;84.00
42755;DHT22;28407;51.830;5.684;2024-03-06T09:59:04;8.10;84.00
42755;DHT22;28407;51.830;5.684;2024-03-06T10:01:05;8.10;84.00
42755;DHT22;28407;51.830;5.684;2024-03-06T10:03:07;8.20;84.00
42755;DHT22;28407;51.830;5.684;2024-03-06T10:05:24;8.20;83.90
42755;DHT22;28407;51.830;5.684;2024-03-06T10:07:25;8.20;83.80
42755;DHT22;28407;51.830;5.684;2024-03-06T10:09:27;8.30;83.80
42755;DHT22;28407;51.830;5.684;2024-03-06T10:11:29;8.30;83.90
42755;DHT22;28407;51.830;5.684;2024-03-06T10:13:32;8.30;83.80
42755;DHT22;28407;51.830;5.684;2024-03-06T10:15:33;8.30;83.70
42755;DHT22;28407;51.830;5.684;2024-03-06T10:17:36;8.30;84.50
42755;DHT22;28407;51.830;5.684;2024-03-06T10:19:37;8.30;83.90
42755;DHT22;28407;51.830;5.684;2024-03-06T10:21:39;8.40;83.90
42755;DHT22;28407;51.830;5.684;2024-03-06T10:23:39;8.40;84.00
42755;DHT22;28407;51.830;5.684;2024-03-06T10:25:43;8.40;84.80
42755;DHT22;28407;51.830;5.684;2024-03-06T10:27:45;8.50;84.20
42755;DHT22;28407;51.830;5.684;2024-03-06T10:29:46;8.50;84.20
42755;DHT22;28407;51.830;5.684;2024-03-06T10:31:56;8.50;84.30
42755;DHT22;28407;51.830;5.684;2024-03-06T10:33:57;8.60;84.30
42755;DHT22;28407;51.830;5.684;2024-03-06T10:35:58;8.60;84.20
42755;DHT22;28407;51.830;5.684;2024-03-06T10:38:02;8.70;84.10
42755;DHT22;28407;51.830;5.684;2024-03-06T10:40:03;8.70;84.10
42755;DHT22;28407;51.830;5.684;2024-03-06T10:42:07;8.80;84.10
42755;DHT22;28407;51.830;5.684;2024-03-06T10:44:11;8.80;84.10
42755;DHT22;28407;51.830;5.684;2024-03-06T10:46:17;8.90;84.20
42755;DHT22;28407;51.830;5.684;2024-03-06T10:48:20;8.90;84.10
42755;DHT22;28407;51.830;5.684;2024-03-06T10:50:21;8.90;84.10
42755;DHT22;28407;51.830;5.684;2024-03-06T10:52:22;9.00;84.10
42755;DHT22;28407;51.830;5.684;2024-03-06T10:54:26;9.00;84.70
42755;DHT22;28407;51.830;5.684;2024-03-06T10:56:27;9.10;84.00
42755;DHT22;28407;51.830;5.684;2024-03-06T10:58:29;9.10;84.00
42755;DHT22;28407;51.830;5.684;2024-03-06T11:00:31;9.10;84.00
42755;DHT22;28407;51.830;5.684;2024-03-06T11:02:34;9.20;84.00
42755;DHT22;28407;51.830;5.684;2024-03-06T11:04:36;9.20;84.00
42755;DHT22;28407;51.830;5.684;2024-03-06T11:06:38;9.20;84.00
42755;DHT22;28407;51.830;5.684;2024-03-06T11:08:39;9.30;84.00
42755;DHT22;28407;51.830;5.684;2024-03-06T11:10:42;9.30;84.00
42755;DHT22;28407;51.830;5.684;2024-03-06T11:12:46;9.40;84.10
42755;DHT22;28407;51.830;5.684;2024-03-06T11:14:50;9.40;84.00
42755;DHT22;28407;51.830;5.684;2024-03-06T11:19:06;9.50;84.00
42755;DHT22;28407;51.830;5.684;2024-03-06T11:23:12;9.60;83.90
42755;DHT22;28407;51.830;5.684;2024-03-06T11:28:03;9.70;83.90
42755;DHT22;28407;51.830;5.684;2024-03-06T11:30:07;9.80;83.80
42755;DHT22;28407;51.830;5.684;2024-03-06T11:32:11;9.90;83.70
42755;DHT22;28407;51.830;5.684;2024-03-06T11:34:12;9.90;83.60
42755;DHT22;28407;51.830;5.684;2024-03-06T11:38:22;10.10;83.50
42755;DHT22;28407;51.830;5.684;2024-03-06T11:40:29;10.10;83.40
42755;DHT22;28407;51.830;5.684;2024-03-06T11:42:34;10.10;83.30
42755;DHT22;28407;51.830;5.684;2024-03-06T11:44:55;10.20;83.30
42755;DHT22;28407;51.830;5.684;2024-03-06T11:49:00;10.30;83.30
42755;DHT22;28407;51.830;5.684;2024-03-06T11:51:02;10.40;83.30
42755;DHT22;28407;51.830;5.684;2024-03-06T11:53:06;10.40;83.20
42755;DHT22;28407;51.830;5.684;2024-03-06T11:55:07;10.50;83.10
42755;DHT22;28407;51.830;5.684;2024-03-06T11:57:09;10.60;83.00
42755;DHT22;28407;51.830;5.684;2024-03-06T11:59:21;10.60;82.80
42755;DHT22;28407;51.830;5.684;2024-03-06T12:01:23;10.70;82.70
42755;DHT22;28407;51.830;5.684;2024-03-06T12:03:24;10.80;82.60
42755;DHT22;28407;51.830;5.684;2024-03-06T12:05:25;10.80;82.50
42755;DHT22;28407;51.830;5.684;2024-03-06T12:07:28;10.90;82.30
42755;DHT22;28407;51.830;5.684;2024-03-06T12:09:35;11.00;82.20
42755;DHT22;28407;51.830;5.684;2024-03-06T12:11:37;11.10;82.10
42755;DHT22;28407;51.830;5.684;2024-03-06T12:13:43;11.20;82.00
42755;DHT22;28407;51.830;5.684;2024-03-06T12:15:44;11.30;81.80
42755;DHT22;28407;51.830;5.684;2024-03-06T12:17:48;11.40;81.70
42755;DHT22;28407;51.830;5.684;2024-03-06T12:19:55;11.50;81.60
42755;DHT22;28407;51.830;5.684;2024-03-06T12:21:59;11.60;81.40
42755;DHT22;28407;51.830;5.684;2024-03-06T12:24:09;11.60;81.20
42755;DHT22;28407;51.830;5.684;2024-03-06T12:26:10;11.70;81.20
42755;DHT22;28407;51.830;5.684;2024-03-06T12:28:11;11.80;81.00
42755;DHT22;28407;51.830;5.684;2024-03-06T12:30:12;11.90;80.80
42755;DHT22;28407;51.830;5.684;2024-03-06T12:32:17;12.00;80.70
42755;DHT22;28407;51.830;5.684;2024-03-06T12:34:18;12.10;80.60
42755;DHT22;28407;51.830;5.684;2024-03-06T12:36:25;12.20;80.50
42755;DHT22;28407;51.830;5.684;2024-03-06T12:38:28;12.30;80.30
42755;DHT22;28407;51.830;5.684;2024-03-06T12:40:30;12.40;80.20
42755;DHT22;28407;51.830;5.684;2024-03-06T12:42:30;12.50;80.00
42755;DHT22;28407;51.830;5.684;2024-03-06T12:44:31;12.60;80.00
42755;DHT22;28407;51.830;5.684;2024-03-06T12:46:32;12.70;79.80
42755;DHT22;28407;51.830;5.684;2024-03-06T12:48:33;12.80;79.60
42755;DHT22;28407;51.830;5.684;2024-03-06T12:50:33;12.90;79.50
42755;DHT22;28407;51.830;5.684;2024-03-06T12:52:34;12.90;79.40
42755;DHT22;28407;51.830;5.684;2024-03-06T12:54:35;13.00;79.30
42755;DHT22;28407;51.830;5.684;2024-03-06T12:56:36;13.10;79.20
42755;DHT22;28407;51.830;5.684;2024-03-06T12:58:37;13.10;79.10
42755;DHT22;28407;51.830;5.684;2024-03-06T13:00:43;13.10;79.10
42755;DHT22;28407;51.830;5.684;2024-03-06T13:02:44;13.10;79.10
42755;DHT22;28407;51.830;5.684;2024-03-06T13:04:45;13.10;79.20
42755;DHT22;28407;51.830;5.684;2024-03-06T13:06:46;13.20;79.20
42755;DHT22;28407;51.830;5.684;2024-03-06T13:08:47;13.20;79.10
42755;DHT22;28407;51.830;5.684;2024-03-06T13:10:48;13.20;79.00
42755;DHT22;28407;51.830;5.684;2024-03-06T13:12:49;13.10;79.00